Latest Coastal Weather Observations for Ulladulla

IDN60701

Issued at 9:02 pm EDT Saturday 31 January 2015 (issued every 10 minutes, with the page automatically refreshed every 10 minutes)

About coastal observations | Map of coastal stations | Coastal observations for NSW | Marine services | Other Formats
Station Details ID: 069138 Name: ULLADULLA AWS Lat: -35.36 Lon: 150.48 Height: 35.7 m
Data from the previous 72 hours. | See also: Recent months at Ulladulla
Date/Time
EDT
Temp

°C
Wind Pressure Rain
since 9am
mm
Weather Cloud Vis
km
Sea
Height
m
Swell
Dir
 
Speed
knots
Gust
knots
hPa Trend Height
m
Period
s
Dir
31/08:30pm 20.4 S 4 6 1008.3 - 0.0 - - - - - - -
31/08:00pm 20.4 S 4 6 1008.1 - 0.0 - - - - - - -
31/07:30pm 20.6 S 6 8 1007.7 - 0.0 - - - - - - -
31/07:00pm 20.4 S 5 7 1007.3 - 0.0 - - - - - - -
31/06:30pm 20.9 SSE 4 7 1006.9 - 0.0 - - - - - - -
31/06:00pm 21.4 SSE 4 6 1006.6 - 0.0 - - - - - - -
31/05:30pm 21.7 SSE 3 5 1006.5 - 0.0 - - - - - - -
31/05:00pm 22.3 SSE 4 8 1006.4 - 0.0 - - - - - - -
31/04:30pm 22.4 SSE 5 8 1006.4 - 0.0 - - - - - - -
31/04:00pm 23.0 SSE 4 7 1006.3 - 0.0 - - - - - - -
31/03:30pm 22.6 SSE 4 7 1006.3 - 0.0 - - - - - - -
31/03:00pm 21.9 SSE 4 8 1006.3 - 0.0 - - - - - - -
31/02:30pm 21.9 SSE 4 7 1006.4 - 0.0 - - - - - - -
31/02:00pm 21.9 SSE 6 7 1006.5 - 0.0 - - - - - - -
31/01:30pm 21.3 SE 2 4 1006.7 - 0.0 - - - - - - -
31/01:00pm 21.5 ENE 2 4 1006.9 - 0.0 - - - - - - -
31/12:30pm 21.9 SSE 3 6 1007.3 - 0.0 - - - - - - -
31/12:00pm 21.9 ESE 4 7 1007.4 - 0.0 - - - - - - -
31/11:30am 21.7 E 4 6 1007.7 - 0.0 - - - - - - -
31/11:00am 21.8 NE 4 7 1007.8 - 0.0 - - - - - - -
31/10:30am 20.6 NNE 4 6 1007.8 - 0.0 - - - - - - -
31/10:00am 19.9 NNE 4 5 1007.7 - 0.0 - - - - - - -
31/09:30am 19.6 NNE 4 5 1007.5 - 0.0 - - - - - - -
31/09:00am 19.9 NW 4 6 1007.5 - 0.4 - - - - - - -
31/08:30am 18.1 WNW 3 5 1007.5 - 0.4 - - - - - - -
31/08:00am 17.7 WNW 3 5 1007.4 - 0.4 - - - - - - -
31/07:30am 17.1 W 4 5 1007.2 - 0.4 - - - - - - -
31/07:00am 16.6 W 3 6 1006.9 - 0.4 - - - - - - -
31/06:30am 16.3 W 3 5 1006.6 - 0.4 - - - - - - -
31/06:00am 16.0 W 3 5 1006.4 - 0.4 - - - - - - -
31/05:30am 16.0 WSW 2 3 1006.1 - 0.4 - - - - - - -
31/05:00am 15.9 SSW 2 3 1005.8 - 0.4 - - - - - - -
31/04:30am 15.5 WSW 4 5 1005.8 - 0.4 - - - - - - -
31/04:00am 15.3 W 4 5 1006.0 - 0.4 - - - - - - -
31/03:30am 14.7 WSW 4 5 1006.2 - 0.4 - - - - - - -
31/03:00am 15.0 WNW 2 3 1006.3 - 0.4 - - - - - - -
31/02:30am 15.4 WSW 3 4 1006.5 - 0.4 - - - - - - -
31/02:00am 15.2 SW 3 5 1006.8 - 0.4 - - - - - - -
31/01:30am 15.5 WSW 3 5 1007.0 - 0.4 - - - - - - -
31/01:00am 15.8 WSW 3 5 1007.3 - 0.4 - - - - - - -
31/12:30am 16.2 WSW 3 5 1007.3 - 0.4 - - - - - - -
 
Date/Time
EDT
Temp

°C
Wind Pressure Rain
since 9am
mm
Weather Cloud Vis
km
Sea
Height
m
Swell
Dir
 
Speed
knots
Gust
knots
hPa Trend Height
m
Period
s
Dir
30/11:30pm 17.2 SW 3 7 1007.6 - 0.4 - - - - - - -
30/11:00pm 17.4 SW 4 6 1007.6 - 0.4 - - - - - - -
30/10:30pm 17.6 SW 4 5 1007.6 - 0.4 - - - - - - -
30/10:00pm 17.6 SW 5 7 1007.5 - 0.4 - - - - - - -
30/09:30pm 17.2 SW 4 6 1007.5 - 0.4 - - - - - - -
30/09:00pm 17.0 SW 5 6 1007.4 - 0.4 - - - - - - -
30/08:30pm 17.0 SW 4 7 1007.2 - 0.4 - - - - - - -
30/08:00pm 17.5 SW 5 8 1007.1 - 0.4 - - - - - - -
30/07:30pm 17.6 SW 5 7 1006.9 - 0.4 - - - - - - -
30/07:00pm 19.1 SSW 7 11 1006.9 - 0.2 - - - - - - -
30/06:30pm 20.6 SSW 7 14 1006.3 - 0.0 - - - - - - -
30/06:00pm 21.1 S 11 17 1005.7 - 0.0 - - - - - - -
30/05:30pm 20.4 S 14 19 1005.7 - 0.0 - - - - - - -
30/05:00pm 20.2 S 15 21 1005.6 - 0.0 - - - - - - -
30/04:30pm 21.1 S 18 23 1005.6 - 0.0 - - - - - - -
30/04:00pm 21.8 S 17 22 1005.4 - 0.0 - - - - - - -
30/03:30pm 21.4 S 15 22 1005.5 - 0.0 - - - - - - -
30/03:00pm 22.1 SSW 11 17 1005.5 - 0.0 - - - - - - -
30/02:30pm 22.3 SSW 11 16 1005.7 - 0.0 - - - - - - -
30/02:00pm 22.3 SSW 13 20 1006.0 - 0.0 - - - - - - -
30/01:30pm 22.7 SW 11 19 1006.2 - 0.0 - - - - - - -
30/01:00pm 20.9 SW 11 20 1006.6 - 0.0 - - - - - - -
30/12:30pm 20.1 SW 7 11 1007.0 - 0.0 - - - - - - -
30/12:00pm 17.5 SW 4 7 1007.6 - 0.0 - - - - - - -
30/11:30am 17.2 WSW 6 9 1008.1 - 0.0 - - - - - - -
30/11:00am 17.1 WSW 5 11 1008.3 - 0.0 - - - - - - -
30/10:30am 17.4 WSW 6 12 1008.5 - 0.0 - - - - - - -
30/10:00am 16.3 SW 5 10 1008.9 - 0.0 - - - - - - -
30/09:30am 15.9 SW 6 11 1008.9 - 0.0 - - - - - - -
30/09:00am 15.7 SW 5 9 1009.0 - 0.0 - - - - - - -
30/08:30am 15.7 WSW 5 9 1008.9 - 0.0 - - - - - - -
30/08:00am 14.8 SW 6 10 1008.8 - 0.0 - - - - - - -
30/07:30am 14.4 WSW 6 10 1008.7 - 0.0 - - - - - - -
30/07:00am 14.2 WSW 7 11 1008.6 - 0.0 - - - - - - -
30/06:30am 13.9 WSW 6 10 1008.5 - 0.0 - - - - - - -
30/06:00am 13.7 WSW 5 9 1008.4 - 0.0 - - - - - - -
30/05:30am 13.8 WSW 6 10 1008.3 - 0.0 - - - - - - -
30/05:00am 13.7 WSW 5 9 1008.4 - 0.0 - - - - - - -
30/04:30am 13.9 WSW 6 10 1008.5 - 0.0 - - - - - - -
30/04:00am 13.8 WSW 4 8 1008.7 - 0.0 - - - - - - -
30/03:30am 13.8 WSW 4 7 1009.0 - 0.0 - - - - - - -
30/03:00am 14.0 WSW 4 7 1009.3 - 0.0 - - - - - - -
30/02:30am 14.7 WSW 6 10 1009.5 - 0.0 - - - - - - -
30/02:00am 15.0 WSW 6 11 1009.9 - 0.0 - - - - - - -
30/01:30am 15.2 SW 8 11 1010.0 - 0.0 - - - - - - -
30/01:00am 15.3 SW 8 13 1010.3 - 0.0 - - - - - - -
30/12:30am 15.3 SW 7 11 1010.7 - 0.0 - - - - - - -
30/12:00am 15.4 SSW 7 11 1011.1 - 0.0 - - - - - - -
 
Date/Time
EDT
Temp

°C
Wind Pressure Rain
since 9am
mm
Weather Cloud Vis
km
Sea
Height
m
Swell
Dir
 
Speed
knots
Gust
knots
hPa Trend Height
m
Period
s
Dir
29/11:30pm 16.3 SW 12 21 1011.2 - 0.0 - - - - - - -
29/11:00pm 16.7 SSW 14 22 1011.5 - 0.0 - - - - - - -
29/10:30pm 16.7 SSW 14 21 1011.7 - 0.0 - - - - - - -
29/10:00pm 17.0 SSW 12 23 1012.0 - 0.0 - - - - - - -
29/09:30pm 17.3 SSW 13 23 1011.9 - 0.0 - - - - - - -
29/09:00pm 17.5 SSW 13 23 1012.0 - 0.0 - - - - - - -
29/08:30pm 17.3 SW 9 14 1011.8 - 0.0 - - - - - - -
29/08:10pm 18.4 SSW 15 26 1011.6 - 0.0 - - - - - - -
29/08:00pm 18.4 SSW 16 25 1011.8 - 0.0 - - - - - - -
29/07:30pm 18.7 SSW 18 25 1011.4 - 0.0 - - - - - - -
29/07:10pm 18.9 S 22 33 1011.2 - 0.0 - - - - - - -
29/07:00pm 19.0 S 24 32 1011.2 - 0.0 - - - - - - -
29/06:50pm 19.0 S 21 32 1011.3 - 0.0 - - - - - - -
29/06:30pm 18.8 S 27 35 1011.2 - 0.0 - - - - - - -
29/06:00pm 19.3 S 25 35 1010.9 - 0.0 - - - - - - -
29/05:43pm 19.6 S 26 36 1011.1 - 0.0 - - - - - - -
29/05:30pm 19.1 S 29 36 1010.9 - 0.0 - - - - - - -
29/05:00pm 20.0 S 23 30 1011.2 - 0.0 - - - - - - -
29/04:30pm 20.1 S 25 33 1011.2 - 0.0 - - - - - - -
29/04:00pm 20.2 S 25 31 1011.2 - 0.0 - - - - - - -
29/03:30pm 20.3 S 23 29 1011.5 - 0.0 - - - - - - -
29/03:00pm 20.3 S 19 23 1011.6 - 0.0 - - - - - - -
29/02:30pm 20.3 S 15 22 1012.2 - 0.0 - - - - - - -
29/02:05pm 20.1 SSW 18 28 1012.4 - 0.0 - - - - - - -
29/02:00pm 20.0 S 20 28 1012.5 - 0.0 - - - - - - -
29/01:55pm 19.9 S 22 32 1012.5 - 0.0 - - - - - - -
29/01:30pm 19.4 S 25 34 1012.4 - 0.0 - - - - - - -
29/01:04pm 20.1 S 20 30 1012.9 - 0.0 - - - - - - -
29/01:00pm 20.1 S 22 30 1013.0 - 0.0 - - - - - - -
29/12:30pm 19.9 S 20 32 1013.0 - 0.0 - - - - - - -
29/12:09pm 19.9 S 19 29 1013.0 - 0.0 - - - - - - -
29/12:00pm 19.6 S 21 29 1013.0 - 0.0 - - - - - - -
29/11:46am 19.6 S 18 28 1013.1 - 0.0 - - - - - - -
29/11:30am 19.5 S 22 31 1013.1 - 0.0 - - - - - - -
29/11:13am 19.4 S 19 29 1013.2 - 0.0 - - - - - - -
29/11:00am 19.1 SSW 16 25 1013.3 - 0.0 - - - - - - -
29/10:30am 18.9 SSW 14 21 1013.6 - 0.0 - - - - - - -
29/10:00am 18.4 SSW 14 21 1013.7 - 0.0 - - - - - - -
29/09:30am 17.6 SSW 15 22 1013.9 - 0.0 - - - - - - -
29/09:00am 17.1 SW 12 18 1013.8 - 10.4 - - - - - - -
29/08:30am 16.3 SW 13 21 1014.0 - 10.4 - - - - - - -
29/08:00am 16.1 SSW 15 22 1013.7 - 10.4 - - - - - - -
29/07:30am 15.3 SW 11 17 1013.4 - 10.4 - - - - - - -
29/07:00am 14.4 SSW 11 18 1013.4 - 10.4 - - - - - - -
29/06:30am 14.0 SW 11 17 1013.2 - 10.4 - - - - - - -
29/06:00am 13.9 SW 9 15 1013.2 - 10.4 - - - - - - -
29/05:30am 13.8 SW 8 13 1013.2 - 10.4 - - - - - - -
29/05:00am 14.0 SW 9 13 1013.2 - 10.4 - - - - - - -
29/04:30am 14.1 SW 10 17 1013.1 - 10.4 - - - - - - -
29/04:00am 14.2 SW 10 16 1013.2 - 10.4 - - - - - - -
29/03:30am 14.3 SW 11 19 1013.3 - 10.4 - - - - - - -
29/03:00am 14.2 SW 11 16 1013.5 - 10.4 - - - - - - -
29/02:30am 14.1 SW 10 15 1013.8 - 10.4 - - - - - - -
29/02:00am 14.1 SW 9 14 1014.1 - 10.4 - - - - - - -
29/01:30am 13.7 SW 9 15 1014.5 - 10.4 - - - - - - -
29/01:00am 14.0 SW 8 12 1015.0 - 10.4 - - - - - - -
29/12:30am 14.0 SW 10 16 1015.3 - 10.4 - - - - - - -
29/12:00am 14.2 SW 8 13 1015.2 - 10.4 Recent precip. - - - - - -
 
Date/Time
EDT
Temp

°C
Wind Pressure Rain
since 9am
mm
Weather Cloud Vis
km
Sea
Height
m
Swell
Dir
 
Speed
knots
Gust
knots
hPa Trend Height
m
Period
s
Dir
28/11:30pm 14.7 SW 9 14 1015.5 - 9.8 - - - - - - -
28/11:00pm 14.8 SW 12 19 1015.7 - 7.4 - - - - - - -
28/10:30pm 14.9 SW 11 19 1015.7 - 6.8 - - - - - - -
28/10:00pm 15.1 SW 8 13 1015.6 - 5.0 - - - - - - -
28/09:30pm 15.6 SW 12 18 1015.7 - 5.0 - - - - - - -

Other Formats:

Comma delimited format used in spreadsheet applications
http://www.bom.gov.au/fwo/IDN60701/IDN60701.94938.axf

JavaScript Object Notation format (JSON) in row-major order
http://www.bom.gov.au/fwo/IDN60701/IDN60701.94938.json